Time;durP1;ratioP1;P1;durP2;ratioP2;P2;SDS_P1;SDS_P2;PMS_P1;PMS_P2;Temp;Humidity;BMP_temperature;BMP_pressure;BME280_temperature;BME280_humidity;BME280_pressure;Samples;Min_cycle;Max_cycle;Signal;HPM_P1;HPM_P2
2022/12/13 00:01:59;;;;;;;21.27;7.57;;;;;;;-0.28;87.69;100745.09;5075873;28;21014;-67
2022/12/13 00:04:26;;;;;;;27.87;8.03;;;;;;;-0.22;86.72;100749.56;5075398;28;20457;-68
2022/12/13 00:06:53;;;;;;;20.53;7.67;;;;;;;-0.25;87.13;100750.00;5074757;28;20576;-68
2022/12/13 00:09:21;;;;;;;18.70;7.27;;;;;;;-0.29;87.65;100746.97;5074496;28;20457;-68
2022/12/13 00:11:48;;;;;;;23.43;8.77;;;;;;;-0.26;87.37;100745.72;5075061;28;20483;-68
2022/12/13 00:14:15;;;;;;;14.33;7.20;;;;;;;-0.21;86.72;100745.84;5074095;28;20465;-67
2022/12/13 00:16:45;;;;;;;18.63;7.17;;;;;;;-0.20;86.90;100747.47;5074175;28;20512;-67
2022/12/13 00:19:14;;;;;;;12.83;5.80;;;;;;;-0.18;86.61;100747.22;5074745;28;20878;-67
2022/12/13 00:21:41;;;;;;;16.57;6.07;;;;;;;-0.29;86.95;100751.47;5074700;28;20465;-68
2022/12/13 00:24:08;;;;;;;15.73;6.13;;;;;;;-0.24;86.01;100748.13;5074751;28;20457;-68
2022/12/13 00:26:35;;;;;;;13.20;6.13;;;;;;;-0.22;86.30;100740.72;5074687;28;20572;-68
2022/12/13 00:29:04;;;;;;;18.50;8.30;;;;;;;-0.22;86.36;100740.72;5074399;28;20560;-68
2022/12/13 00:31:31;;;;;;;15.60;5.90;;;;;;;-0.26;85.77;100741.19;5075248;28;20540;-68
2022/12/13 00:33:58;;;;;;;17.27;7.40;;;;;;;-0.22;85.44;100735.41;5074179;28;20993;-68
2022/12/13 00:36:26;;;;;;;17.83;6.50;;;;;;;-0.21;84.76;100742.38;5074279;28;20469;-68
2022/12/13 00:39:00;;;;;;;14.90;7.17;;;;;;;-0.31;84.98;100732.25;5073681;28;21018;-68
2022/12/13 00:41:29;;;;;;;17.00;6.27;;;;;;;-0.34;85.42;100722.88;5075330;28;20442;-68
2022/12/13 00:43:57;;;;;;;13.90;5.23;;;;;;;-0.27;85.04;100723.63;5074110;28;20469;-68
2022/12/13 00:46:24;;;;;;;25.53;6.93;;;;;;;-0.27;84.28;100715.63;5074838;28;20485;-68
2022/12/13 00:48:52;;;;;;;15.13;6.87;;;;;;;-0.28;84.20;100721.97;5073338;28;20545;-67
2022/12/13 00:51:19;;;;;;;15.47;6.63;;;;;;;-0.34;84.70;100717.56;5074972;28;20537;-67
2022/12/13 00:53:47;;;;;;;14.63;7.27;;;;;;;-0.39;85.68;100716.63;5074733;28;20481;-67
2022/12/13 00:56:16;;;;;;;13.73;6.40;;;;;;;-0.38;85.87;100711.06;5074575;28;20560;-67
2022/12/13 00:58:43;;;;;;;15.37;7.20;;;;;;;-0.38;86.41;100712.91;5074552;28;20461;-67
2022/12/13 01:01:12;;;;;;;20.53;7.90;;;;;;;-0.37;86.56;100707.34;5073679;28;20892;-68
2022/12/13 01:03:39;;;;;;;16.00;6.80;;;;;;;-0.37;86.83;100702.03;5074244;28;20827;-68
2022/12/13 01:06:10;;;;;;;19.43;7.20;;;;;;;-0.40;87.86;100713.16;5073701;28;20493;-67
2022/12/13 01:08:37;;;;;;;19.27;6.30;;;;;;;-0.41;88.63;100708.03;5073698;28;20475;-68
2022/12/13 01:11:05;;;;;;;16.10;7.30;;;;;;;-0.32;88.15;100718.13;5073661;28;20880;-67
2022/12/13 01:13:32;;;;;;;20.90;8.17;;;;;;;-0.39;88.83;100714.78;5073488;28;21036;-68
2022/12/13 01:16:02;;;;;;;16.33;7.90;;;;;;;-0.39;88.96;100720.09;5074136;28;20912;-68
2022/12/13 01:18:29;;;;;;;23.70;7.97;;;;;;;-0.40;88.99;100710.50;5074125;28;20524;-68
2022/12/13 01:21:00;;;;;;;19.23;7.97;;;;;;;-0.35;89.33;100715.94;5073423;28;20552;-67
2022/12/13 01:23:27;;;;;;;17.77;7.90;;;;;;;-0.32;88.93;100707.50;5073930;28;21049;-67
2022/12/13 01:25:55;;;;;;;23.70;8.73;;;;;;;-0.34;89.04;100709.56;5073170;28;20576;-67
2022/12/13 01:28:23;;;;;;;20.60;8.53;;;;;;;-0.33;88.76;100702.41;5073642;28;20974;-68
2022/12/13 01:31:00;;;;;;;13.57;5.90;;;;;;;-0.36;88.16;100706.31;5073206;28;20544;-67
2022/12/13 01:33:28;;;;;;;19.00;6.57;;;;;;;-0.35;88.55;100701.81;5072397;28;20996;-67
2022/12/13 01:35:55;;;;;;;22.23;7.60;;;;;;;-0.41;88.32;100706.19;5073576;28;20478;-67
2022/12/13 01:38:21;;;;;;;19.13;6.90;;;;;;;-0.43;88.37;100702.13;5073886;28;20461;-68
2022/12/13 01:40:56;;;;;;;20.83;7.10;;;;;;;-0.44;87.38;100698.66;5073860;28;20539;-68
2022/12/13 01:43:26;;;;;;;14.43;6.60;;;;;;;-0.51;88.50;100689.94;5072003;28;20551;-68
2022/12/13 01:45:52;;;;;;;15.83;5.50;;;;;;;-0.43;87.33;100694.97;5073795;28;20560;-68
2022/12/13 01:48:23;;;;;;;10.80;4.97;;;;;;;-0.39;87.59;100690.00;5073656;28;20481;-68
2022/12/13 01:50:52;;;;;;;15.03;6.57;;;;;;;-0.37;87.57;100691.38;5073723;28;20461;-68
2022/12/13 01:53:22;;;;;;;15.17;6.03;;;;;;;-0.36;86.95;100693.00;5072561;28;20457;-68
2022/12/13 01:55:54;;;;;;;13.60;7.67;;;;;;;-0.42;86.53;100685.13;5073532;28;20564;-68
2022/12/13 01:58:21;;;;;;;16.43;7.67;;;;;;;-0.37;87.04;100690.59;5073032;28;20503;-68
2022/12/13 02:00:50;;;;;;;17.23;7.30;;;;;;;-0.36;87.01;100692.19;5072880;28;20548;-68
2022/12/13 02:03:19;;;;;;;27.63;7.10;;;;;;;-0.38;87.23;100696.94;5072582;28;20873;-68
2022/12/13 02:05:53;;;;;;;18.60;7.07;;;;;;;-0.41;87.52;100689.41;5072172;28;20479;-68
2022/12/13 02:08:21;;;;;;;30.20;7.87;;;;;;;-0.36;88.17;100684.22;5073428;28;21012;-68
2022/12/13 02:10:47;;;;;;;13.10;6.30;;;;;;;-0.36;88.26;100693.00;5072116;28;20465;-68
2022/12/13 02:13:14;;;;;;;19.33;6.70;;;;;;;-0.36;88.51;100695.66;5073655;28;20536;-68
2022/12/13 02:15:53;;;;;;;17.60;7.17;;;;;;;-0.30;88.99;100691.31;5071879;28;21101;-68
2022/12/13 02:18:44;;;;;;;21.97;7.93;;;;;;;-0.31;89.24;100695.81;5073595;28;20453;-68
2022/12/13 02:21:21;;;;;;;24.40;7.77;;;;;;;-0.30;89.52;100689.47;5053622;28;20426;-68
2022/12/13 02:24:27;;;;;;;21.67;8.07;;;;;;;-0.26;89.13;100698.63;5063700;28;20549;-68
2022/12/13 02:27:34;;;;;;;14.57;6.40;;;;;;;-0.28;88.57;100692.69;5072318;28;20571;-68
2022/12/13 02:30:25;;;;;;;28.00;7.60;;;;;;;-0.36;89.27;100694.84;5057546;28;20461;-68
2022/12/13 02:33:17;;;;;;;18.53;8.17;;;;;;;-0.39;90.28;100695.34;5072781;28;20461;-68
2022/12/13 02:35:53;;;;;;;20.67;6.90;;;;;;;-0.44;90.39;100690.69;5072101;28;20485;-68
2022/12/13 02:38:26;;;;;;;19.60;7.10;;;;;;;-0.34;89.47;100684.81;5072895;28;20845;-68
2022/12/13 02:40:57;;;;;;;27.80;9.27;;;;;;;-0.31;90.38;100687.84;5071145;28;20540;-68
2022/12/13 02:43:28;;;;;;;20.57;8.13;;;;;;;-0.33;90.83;100697.88;5072150;28;20543;-67
2022/12/13 02:46:00;;;;;;;19.77;7.97;;;;;;;-0.29;90.83;100695.59;5071687;28;20576;-68
2022/12/13 02:48:29;;;;;;;24.77;9.37;;;;;;;-0.32;90.05;100696.84;5072652;28;20919;-67
2022/12/13 02:50:59;;;;;;;24.63;8.37;;;;;;;-0.36;90.31;100693.00;5073223;28;20532;-68
2022/12/13 02:53:27;;;;;;;21.63;8.43;;;;;;;-0.37;90.37;100694.06;5072227;28;20572;-67
2022/12/13 02:55:54;;;;;;;20.23;8.03;;;;;;;-0.43;90.86;100686.19;5071830;28;20561;-67
2022/12/13 02:58:25;;;;;;;24.30;9.33;;;;;;;-0.43;91.13;100689.66;5070906;28;20651;-67
2022/12/13 03:01:13;;;;;;;18.83;8.17;;;;;;;-0.41;91.63;100684.91;5072914;28;20464;-67
2022/12/13 03:03:48;;;;;;;17.90;7.83;;;;;;;-0.39;91.21;100682.84;5072228;28;20517;-67
2022/12/13 03:06:29;;;;;;;25.87;8.70;;;;;;;-0.47;90.95;100675.16;5070203;28;20504;-67
2022/12/13 03:09:06;;;;;;;22.40;9.10;;;;;;;-0.41;91.03;100682.22;5071990;28;20511;-67
2022/12/13 03:14:30;;;;;;;20.60;9.17;;;;;;;-0.46;91.92;100678.63;5072194;28;21089;-67
2022/12/13 03:17:01;;;;;;;15.33;7.67;;;;;;;-0.46;91.30;100676.78;5072177;28;20503;-67
2022/12/13 03:19:28;;;;;;;20.00;7.83;;;;;;;-0.47;91.21;100683.16;5071914;28;20457;-67
2022/12/13 03:21:55;;;;;;;21.47;8.37;;;;;;;-0.46;90.88;100679.44;5071012;28;20544;-67
2022/12/13 03:24:22;;;;;;;21.77;8.40;;;;;;;-0.53;91.47;100684.06;5071420;28;20488;-67
2022/12/13 03:26:50;;;;;;;26.40;10.13;;;;;;;-0.53;91.47;100681.41;5071315;28;20871;-67
2022/12/13 03:29:18;;;;;;;17.50;7.03;;;;;;;-0.57;92.31;100674.91;5070891;28;20458;-67
2022/12/13 03:31:45;;;;;;;20.83;6.97;;;;;;;-0.45;90.74;100667.75;5072845;28;20544;-67
2022/12/13 03:34:13;;;;;;;18.03;7.70;;;;;;;-0.42;91.13;100672.63;5072195;28;20496;-67
2022/12/13 03:36:40;;;;;;;21.10;8.63;;;;;;;-0.42;91.28;100659.34;5072760;28;20461;-67
2022/12/13 03:39:06;;;;;;;16.00;7.23;;;;;;;-0.43;90.92;100659.56;5071494;28;20497;-67
2022/12/13 03:41:34;;;;;;;24.67;9.27;;;;;;;-0.38;90.56;100663.16;5071358;28;20457;-67
2022/12/13 03:44:05;;;;;;;13.50;6.87;;;;;;;-0.43;90.53;100664.88;5070061;28;21047;-67
2022/12/13 03:46:31;;;;;;;24.17;8.83;;;;;;;-0.44;90.76;100658.75;5072571;28;20572;-67
2022/12/13 03:48:58;;;;;;;16.40;7.40;;;;;;;-0.43;90.54;100668.34;5072220;28;20453;-67
2022/12/13 03:51:26;;;;;;;19.57;6.73;;;;;;;-0.47;90.28;100659.19;5073366;28;20452;-67
2022/12/13 03:53:53;;;;;;;22.53;8.93;;;;;;;-0.54;90.28;100661.94;5075210;28;20522;-67
2022/12/13 03:56:19;;;;;;;20.40;7.60;;;;;;;-0.55;90.92;100659.50;5076243;28;20495;-67
2022/12/13 03:58:46;;;;;;;23.17;9.17;;;;;;;-0.52;90.85;100667.06;5075900;28;20437;-67
2022/12/13 04:01:14;;;;;;;24.60;7.83;;;;;;;-0.49;90.85;100666.59;5075336;28;20834;-67
2022/12/13 04:03:43;;;;;;;23.87;7.57;;;;;;;-0.47;91.08;100656.53;5075652;28;20848;-67
2022/12/13 04:06:10;;;;;;;17.43;7.50;;;;;;;-0.44;90.79;100661.41;5076048;28;20560;-67
2022/12/13 04:08:39;;;;;;;16.67;7.00;;;;;;;-0.40;90.29;100656.44;5075125;28;20461;-68
2022/12/13 04:13:47;;;;;;;22.83;7.43;;;;;;;-0.43;90.04;100652.41;5074501;28;20455;-68
2022/12/13 04:16:14;;;;;;;19.63;8.33;;;;;;;-0.42;89.24;100654.00;5075429;28;20583;-67
2022/12/13 04:18:40;;;;;;;17.50;8.30;;;;;;;-0.51;90.33;100645.53;5075451;28;20457;-67
2022/12/13 04:21:07;;;;;;;26.20;7.40;;;;;;;-0.46;90.74;100647.53;5075121;28;20552;-67
2022/12/13 04:23:34;;;;;;;22.67;7.83;;;;;;;-0.49;89.88;100647.16;5074731;28;20463;-67
2022/12/13 04:26:02;;;;;;;21.03;8.57;;;;;;;-0.47;90.28;100648.56;5074150;28;20480;-67
2022/12/13 04:28:28;;;;;;;17.40;7.60;;;;;;;-0.46;89.94;100649.38;5074775;28;20576;-67
2022/12/13 04:30:55;;;;;;;19.37;7.90;;;;;;;-0.46;89.81;100649.38;5074740;28;20836;-67
2022/12/13 04:33:22;;;;;;;23.37;7.57;;;;;;;-0.45;90.47;100643.81;5074509;28;20549;-67
2022/12/13 04:35:50;;;;;;;19.70;8.07;;;;;;;-0.41;90.45;100652.16;5074989;28;21045;-68
2022/12/13 04:38:17;;;;;;;16.03;6.83;;;;;;;-0.39;90.07;100642.13;5074947;28;20548;-68
2022/12/13 04:40:44;;;;;;;18.20;7.27;;;;;;;-0.36;89.99;100650.44;5075271;28;20461;-67
2022/12/13 04:43:12;;;;;;;24.57;8.50;;;;;;;-0.37;89.86;100643.50;5088838;22;20485;-70
2022/12/13 04:45:38;;;;;;;20.93;8.23;;;;;;;-0.33;89.90;100651.84;5054625;28;20500;-68
2022/12/13 04:48:06;;;;;;;17.40;6.70;;;;;;;-0.37;89.21;100653.34;5053356;28;20478;-69
2022/12/13 04:50:33;;;;;;;16.00;6.50;;;;;;;-0.36;88.95;100650.44;5054865;28;20476;-68
2022/12/13 04:52:59;;;;;;;23.50;9.23;;;;;;;-0.37;89.97;100656.78;5054823;28;20466;-68
2022/12/13 04:55:26;;;;;;;17.63;7.17;;;;;;;-0.38;89.57;100654.38;5054986;28;20481;-68
2022/12/13 04:57:53;;;;;;;14.40;6.27;;;;;;;-0.31;88.77;100660.41;5053989;28;21057;-68
2022/12/13 05:00:22;;;;;;;17.20;7.77;;;;;;;-0.42;87.94;100656.66;5053361;28;20832;-68
2022/12/13 05:02:49;;;;;;;17.63;7.10;;;;;;;-0.46;88.10;100660.00;5051931;28;21029;-68
2022/12/13 05:05:16;;;;;;;17.30;7.80;;;;;;;-0.42;87.62;100655.88;5053153;28;20455;-68
2022/12/13 05:07:43;;;;;;;21.13;7.10;;;;;;;-0.44;88.00;100664.09;5053497;28;20561;-68
2022/12/13 05:10:10;;;;;;;24.83;8.43;;;;;;;-0.40;87.30;100665.25;5054096;28;20529;-68
2022/12/13 05:12:37;;;;;;;20.43;7.63;;;;;;;-0.51;87.72;100658.84;5053988;28;21030;-68
2022/12/13 05:15:04;;;;;;;17.17;6.37;;;;;;;-0.46;87.79;100660.00;5054624;28;20501;-68
2022/12/13 05:17:32;;;;;;;22.73;7.60;;;;;;;-0.42;87.87;100669.97;5054135;28;20886;-68
2022/12/13 05:19:59;;;;;;;20.00;7.90;;;;;;;-0.39;88.08;100660.75;5054640;28;20520;-68
2022/12/13 05:22:26;;;;;;;20.70;7.67;;;;;;;-0.41;88.62;100663.59;5052963;28;20498;-67
2022/12/13 05:24:53;;;;;;;15.97;6.43;;;;;;;-0.37;87.33;100664.78;5052554;28;20462;-67
2022/12/13 05:27:20;;;;;;;16.87;7.23;;;;;;;-0.39;87.76;100644.78;5053059;28;20474;-68
2022/12/13 05:29:47;;;;;;;22.63;8.27;;;;;;;-0.41;87.16;100652.97;5052924;28;20951;-68
2022/12/13 05:32:14;;;;;;;16.53;7.10;;;;;;;-0.47;86.88;100648.56;5053964;28;20497;-68
2022/12/13 05:34:42;;;;;;;20.80;8.27;;;;;;;-0.48;87.67;100643.47;5054097;28;20538;-68
2022/12/13 05:37:08;;;;;;;19.57;7.80;;;;;;;-0.52;88.24;100646.59;5052432;28;20451;-68
2022/12/13 05:39:35;;;;;;;15.70;7.77;;;;;;;-0.58;88.17;100647.47;5050839;28;20454;-68
2022/12/13 05:42:02;;;;;;;25.07;7.70;;;;;;;-0.58;88.06;100651.97;5054350;28;20812;-68
2022/12/13 05:44:29;;;;;;;21.23;6.70;;;;;;;-0.52;87.92;100646.59;5052579;28;20446;-68
2022/12/13 05:46:56;;;;;;;26.10;8.03;;;;;;;-0.49;88.03;100647.16;5053723;28;20496;-68
2022/12/13 05:49:23;;;;;;;17.23;7.27;;;;;;;-0.53;88.10;100649.47;5053193;28;20500;-68
2022/12/13 05:51:51;;;;;;;17.60;7.77;;;;;;;-0.46;88.67;100649.38;5054007;28;20485;-68
2022/12/13 05:54:17;;;;;;;21.23;8.33;;;;;;;-0.41;87.97;100657.47;5053655;28;20450;-67
2022/12/13 05:56:44;;;;;;;20.77;8.40;;;;;;;-0.43;88.48;100654.25;5053435;28;20497;-68
2022/12/13 05:59:11;;;;;;;16.63;7.70;;;;;;;-0.42;87.38;100656.66;5052900;28;20875;-67
2022/12/13 06:01:38;;;;;;;23.60;10.20;;;;;;;-0.46;88.14;100644.84;5053985;28;20472;-67
2022/12/13 06:04:04;;;;;;;21.07;9.17;;;;;;;-0.48;88.42;100654.94;5051874;28;20509;-68
2022/12/13 06:06:31;;;;;;;23.20;8.00;;;;;;;-0.48;89.04;100654.94;5053261;28;20901;-67
2022/12/13 06:09:00;;;;;;;24.37;8.50;;;;;;;-0.47;89.82;100661.06;5052220;28;20489;-67
2022/12/13 06:11:26;;;;;;;20.27;9.03;;;;;;;-0.47;89.57;100666.38;5051273;28;21029;-68
2022/12/13 06:13:53;;;;;;;17.30;7.67;;;;;;;-0.48;89.75;100673.56;5052043;28;20482;-67
2022/12/13 06:16:20;;;;;;;20.50;9.47;;;;;;;-0.52;90.03;100670.53;5053146;28;20451;-67
2022/12/13 06:18:46;;;;;;;21.90;9.00;;;;;;;-0.54;89.97;100669.91;5052780;28;20454;-68
2022/12/13 06:21:13;;;;;;;27.17;8.80;;;;;;;-0.62;90.38;100675.59;5053295;28;20962;-68
2022/12/13 06:23:41;;;;;;;26.77;10.97;;;;;;;-0.60;90.10;100670.03;5051780;28;20467;-67
2022/12/13 06:26:09;;;;;;;21.03;8.83;;;;;;;-0.61;90.30;100676.38;5053076;28;20454;-68
2022/12/13 06:28:35;;;;;;;22.97;11.30;;;;;;;-0.65;90.75;100675.22;5052866;28;20927;-68
2022/12/13 06:31:04;;;;;;;29.50;11.20;;;;;;;-0.64;91.00;100671.50;5051744;28;20525;-68
2022/12/13 06:33:34;;;;;;;25.70;10.43;;;;;;;-0.74;90.85;100672.06;5052097;28;20454;-67
2022/12/13 06:36:01;;;;;;;22.13;10.40;;;;;;;-0.67;90.56;100679.94;5053113;28;20454;-68
2022/12/13 06:38:27;;;;;;;24.43;9.20;;;;;;;-0.68;90.65;100671.13;5052192;28;20451;-68
2022/12/13 06:40:54;;;;;;;29.97;11.07;;;;;;;-0.65;90.64;100685.84;5052830;28;20461;-69
2022/12/13 06:43:22;;;;;;;26.47;11.70;;;;;;;-0.69;91.11;100687.34;5052409;28;21003;-67
2022/12/13 06:45:49;;;;;;;25.93;10.03;;;;;;;-0.73;91.82;100681.66;5050014;28;20512;-68
2022/12/13 06:48:16;;;;;;;23.07;9.67;;;;;;;-0.82;92.64;100694.44;5052168;28;20494;-68
2022/12/13 06:50:43;;;;;;;24.10;9.87;;;;;;;-0.75;92.20;100694.38;5051016;28;20469;-67
2022/12/13 06:53:10;;;;;;;25.47;9.60;;;;;;;-0.81;91.79;100689.91;5052786;28;20462;-63
2022/12/13 06:55:37;;;;;;;26.03;10.47;;;;;;;-0.85;92.27;100697.53;5052091;28;20447;-66
2022/12/13 06:58:03;;;;;;;25.97;9.67;;;;;;;-0.78;91.90;100708.91;5053114;28;20976;-66
2022/12/13 07:00:31;;;;;;;26.67;10.20;;;;;;;-0.72;91.91;100703.72;5049699;28;20896;-70
2022/12/13 07:02:58;;;;;;;21.90;9.97;;;;;;;-0.75;91.78;100699.69;5052578;28;20549;-65
2022/12/13 07:05:26;;;;;;;38.30;9.60;;;;;;;-0.70;91.54;100697.16;5053109;28;20478;-67
2022/12/13 07:07:53;;;;;;;20.83;9.73;;;;;;;-0.73;91.95;100696.78;5051521;28;20474;-68
2022/12/13 07:10:20;;;;;;;28.37;10.93;;;;;;;-0.76;92.51;100706.00;5051823;28;20504;-67
2022/12/13 07:12:46;;;;;;;25.77;11.67;;;;;;;-0.70;91.64;100702.47;5052575;28;20466;-69
2022/12/13 07:15:13;;;;;;;31.63;10.70;;;;;;;-0.74;91.34;100706.63;5052998;28;20507;-70
2022/12/13 07:17:41;;;;;;;25.67;10.17;;;;;;;-0.83;92.13;100711.44;5052613;28;20537;-66
2022/12/13 07:20:09;;;;;;;25.30;10.10;;;;;;;-0.77;91.84;100715.03;5052021;28;20456;-67
2022/12/13 07:22:37;;;;;;;34.37;11.80;;;;;;;-0.76;91.43;100722.78;5052956;28;20881;-71
2022/12/13 07:25:05;;;;;;;37.57;12.13;;;;;;;-0.76;91.54;100724.63;5051816;28;20450;-68
2022/12/13 07:27:31;;;;;;;26.23;10.30;;;;;;;-0.74;91.57;100714.59;5056644;28;21085;-67
2022/12/13 07:29:58;;;;;;;26.37;11.60;;;;;;;-0.73;91.31;100716.22;5052657;28;20896;-67
2022/12/13 07:32:25;;;;;;;23.80;10.30;;;;;;;-0.83;91.30;100715.94;5054314;28;20553;-67
2022/12/13 07:34:53;;;;;;;29.03;10.80;;;;;;;-0.88;91.84;100721.91;5056620;28;20538;-69
2022/12/13 07:37:20;;;;;;;25.10;10.20;;;;;;;-0.86;90.86;100727.81;5056916;28;21001;-68
2022/12/13 07:39:47;;;;;;;25.73;11.10;;;;;;;-0.85;90.66;100721.47;5056622;28;21054;-69
2022/12/13 07:42:13;;;;;;;23.60;10.27;;;;;;;-0.84;90.52;100725.75;5056570;28;20486;-69
2022/12/13 07:44:40;;;;;;;29.57;12.03;;;;;;;-0.89;90.82;100730.91;5056869;28;20438;-70
2022/12/13 07:47:07;;;;;;;30.60;10.93;;;;;;;-0.82;90.99;100736.16;5056424;28;20887;-69
2022/12/13 07:49:34;;;;;;;21.57;9.70;;;;;;;-0.78;91.42;100732.84;5056373;28;20496;-69
2022/12/13 07:52:02;;;;;;;25.23;9.70;;;;;;;-0.73;91.23;100732.16;5056571;28;20463;-70
2022/12/13 07:54:29;;;;;;;23.73;11.17;;;;;;;-0.76;91.04;100736.06;5056231;28;20495;-68
2022/12/13 07:56:56;;;;;;;24.43;9.60;;;;;;;-0.73;90.89;100731.38;5056197;28;20491;-70
2022/12/13 07:59:22;;;;;;;21.00;9.70;;;;;;;-0.69;90.95;100735.19;5056451;28;20813;-71
2022/12/13 08:01:49;;;;;;;26.10;11.67;;;;;;;-0.62;90.34;100730.59;5056754;28;20446;-70
2022/12/13 08:04:16;;;;;;;26.93;10.20;;;;;;;-0.63;90.24;100737.75;5056416;28;20446;-70
2022/12/13 08:06:42;;;;;;;26.70;10.97;;;;;;;-0.64;89.62;100744.13;5056528;28;20466;-71
2022/12/13 08:09:10;;;;;;;28.10;11.13;;;;;;;-0.72;91.10;100741.75;5056273;28;20486;-70
2022/12/13 08:11:37;;;;;;;23.83;10.60;;;;;;;-0.68;90.16;100748.25;5056592;28;20446;-70
2022/12/13 08:14:05;;;;;;;22.70;9.67;;;;;;;-0.65;90.46;100745.16;5056381;28;20508;-70
2022/12/13 08:16:31;;;;;;;29.93;10.30;;;;;;;-0.70;89.40;100741.56;5056117;28;20457;-70
2022/12/13 08:18:59;;;;;;;27.80;10.97;;;;;;;-0.77;90.35;100744.28;5055933;28;20454;-70
2022/12/13 08:21:26;;;;;;;24.10;10.67;;;;;;;-0.86;90.49;100741.09;5056149;28;20449;-71
2022/12/13 08:23:52;;;;;;;30.50;12.17;;;;;;;-0.86;90.45;100746.41;5056067;28;21008;-70
2022/12/13 08:26:22;;;;;;;26.83;9.63;;;;;;;-0.91;90.79;100748.94;5055843;28;20434;-70
2022/12/13 08:28:49;;;;;;;21.17;9.70;;;;;;;-0.88;90.98;100753.00;5055937;28;20565;-70
2022/12/13 08:31:16;;;;;;;25.73;10.10;;;;;;;-0.87;90.90;100750.13;5055832;28;20438;-69
2022/12/13 08:33:45;;;;;;;36.47;12.43;;;;;;;-0.91;90.85;100748.94;5055752;28;20504;-70
2022/12/13 08:36:15;;;;;;;26.60;10.50;;;;;;;-0.96;91.23;100746.13;5055712;28;20446;-70
2022/12/13 08:38:42;;;;;;;23.37;10.50;;;;;;;-0.94;91.22;100746.72;5055123;28;20948;-71
2022/12/13 08:41:09;;;;;;;26.90;11.20;;;;;;;-0.97;90.37;100749.00;5053051;28;20455;-71
2022/12/13 08:43:37;;;;;;;32.50;13.50;;;;;;;-0.97;90.77;100755.16;5053043;28;20899;-70
2022/12/13 08:46:04;;;;;;;24.70;10.87;;;;;;;-0.93;90.62;100756.34;5054610;28;20541;-68
2022/12/13 08:48:31;;;;;;;23.07;10.87;;;;;;;-0.89;91.24;100757.50;5055161;28;20573;-70
2022/12/13 08:51:01;;;;;;;30.73;11.53;;;;;;;-0.82;90.53;100760.09;5053897;28;20458;-68
2022/12/13 08:53:27;;;;;;;30.37;10.17;;;;;;;-0.81;90.78;100759.88;5055321;28;20493;-68
2022/12/13 08:55:54;;;;;;;21.60;10.90;;;;;;;-0.83;91.14;100766.44;5054066;28;20912;-68
2022/12/13 08:58:21;;;;;;;30.63;11.23;;;;;;;-0.80;91.05;100766.84;5054870;28;20442;-68
2022/12/13 09:00:49;;;;;;;19.30;8.23;;;;;;;-0.68;90.56;100764.22;5053781;28;20839;-66
2022/12/13 09:03:15;;;;;;;23.03;9.80;;;;;;;-0.69;91.08;100770.59;5055129;28;20553;-67
2022/12/13 09:05:42;;;;;;;30.43;13.37;;;;;;;-0.63;91.47;100767.03;5054001;28;20895;-68
2022/12/13 09:08:09;;;;;;;27.90;12.33;;;;;;;-0.49;90.21;100761.53;5055003;28;20568;-68
2022/12/13 09:10:35;;;;;;;22.73;10.70;;;;;;;-0.47;89.81;100765.63;5054367;28;20804;-68
2022/12/13 09:13:02;;;;;;;24.17;9.93;;;;;;;-0.57;89.68;100760.84;5054960;28;20553;-68
2022/12/13 09:15:30;;;;;;;23.47;11.07;;;;;;;-0.54;89.98;100764.88;5053228;28;20470;-68
2022/12/13 09:17:58;;;;;;;21.30;9.97;;;;;;;-0.48;88.70;100774.66;5054907;28;20525;-68
2022/12/13 09:20:25;;;;;;;29.57;10.93;;;;;;;-0.47;88.55;100764.81;5054240;28;20489;-68
2022/12/13 09:22:53;;;;;;;25.50;10.30;;;;;;;-0.59;89.44;100775.38;5054695;28;20549;-66
2022/12/13 09:25:19;;;;;;;27.53;11.37;;;;;;;-0.64;90.76;100778.72;5054320;28;20462;-66
2022/12/13 09:27:46;;;;;;;29.33;10.87;;;;;;;-0.53;89.94;100771.84;5053452;28;20494;-66
2022/12/13 09:30:14;;;;;;;25.10;10.27;;;;;;;-0.49;88.96;100778.31;5053851;28;20550;-67
2022/12/13 09:32:42;;;;;;;31.20;11.17;;;;;;;-0.58;88.95;100777.81;5054142;28;20478;-66
2022/12/13 09:35:10;;;;;;;27.13;10.47;;;;;;;-0.52;89.59;100776.13;5054075;28;20458;-70
2022/12/13 09:37:37;;;;;;;23.70;9.87;;;;;;;-0.55;89.22;100768.59;5053287;28;20461;-70
2022/12/13 09:40:05;;;;;;;23.43;10.40;;;;;;;-0.50;89.32;100771.38;5054115;28;20441;-69
2022/12/13 09:42:35;;;;;;;28.73;9.90;;;;;;;-0.48;89.11;100772.00;5053159;28;20517;-70
2022/12/13 09:45:05;;;;;;;22.20;10.07;;;;;;;-0.48;88.75;100769.31;5054080;28;20478;-72
2022/12/13 09:47:35;;;;;;;20.47;9.00;;;;;;;-0.49;88.85;100775.66;5052861;28;21042;-70
2022/12/13 09:50:07;;;;;;;21.87;9.77;;;;;;;-0.46;89.66;100772.56;5051357;28;20481;-70
2022/12/13 09:52:38;;;;;;;29.10;10.50;;;;;;;-0.39;89.49;100764.50;5053779;28;20546;-70
2022/12/13 09:55:20;;;;;;;23.50;9.43;;;;;;;-0.32;88.28;100768.69;5047179;28;20467;-70
2022/12/13 09:57:47;;;;;;;18.80;8.37;;;;;;;-0.34;87.65;100770.78;5045645;28;20830;-70
2022/12/13 10:00:18;;;;;;;22.13;10.40;;;;;;;-0.33;88.33;100763.59;5052622;28;20541;-70
2022/12/13 10:02:46;;;;;;;18.47;8.00;;;;;;;-0.27;88.29;100768.00;5053453;28;20983;-69
2022/12/13 10:05:23;;;;;;;33.37;9.83;;;;;;;-0.29;88.23;100770.09;5049586;28;20554;-70
2022/12/13 10:07:53;;;;;;;20.90;9.00;;;;;;;-0.35;88.08;100769.16;5034385;28;20427;-69
2022/12/13 10:10:19;;;;;;;24.30;10.90;;;;;;;-0.33;88.35;100775.06;5052810;28;20564;-69
2022/12/13 10:12:52;;;;;;;28.43;9.60;;;;;;;-0.27;87.92;100765.34;5053170;28;20470;-69
2022/12/13 10:15:20;;;;;;;23.23;9.50;;;;;;;-0.27;86.94;100766.19;5053633;28;20929;-71
2022/12/13 10:17:49;;;;;;;21.20;9.57;;;;;;;-0.24;87.21;100759.59;5052718;28;20553;-70
2022/12/13 10:20:20;;;;;;;20.03;7.93;;;;;;;-0.28;86.24;100758.41;5052187;28;20995;-70
2022/12/13 10:22:47;;;;;;;18.33;8.70;;;;;;;-0.28;85.55;100758.41;5053336;28;20462;-70
2022/12/13 10:25:17;;;;;;;17.93;8.50;;;;;;;-0.22;85.05;100754.88;5053007;28;20465;-70
2022/12/13 10:27:45;;;;;;;22.60;8.80;;;;;;;-0.30;85.44;100748.00;5053704;28;20496;-70
2022/12/13 10:30:14;;;;;;;22.40;8.53;;;;;;;-0.24;85.88;100748.13;5052043;28;20561;-70
2022/12/13 10:32:53;;;;;;;19.73;8.20;;;;;;;-0.16;85.82;100747.81;5053072;28;21006;-70
2022/12/13 10:35:29;;;;;;;21.10;8.93;;;;;;;-0.15;85.27;100749.44;5053371;28;20517;-70
2022/12/13 10:37:57;;;;;;;16.50;7.67;;;;;;;-0.19;84.55;100750.94;5052612;28;20454;-70
2022/12/13 10:40:33;;;;;;;21.63;8.50;;;;;;;-0.28;82.77;100753.91;5052279;28;20595;-70
2022/12/13 10:43:13;;;;;;;20.80;7.47;;;;;;;-0.39;84.01;100752.03;5053228;28;20589;-70
2022/12/13 10:45:40;;;;;;;20.77;7.80;;;;;;;-0.32;83.87;100742.09;5052896;28;20541;-70
2022/12/13 10:48:19;;;;;;;17.57;8.70;;;;;;;-0.31;83.09;100751.72;5053268;28;20435;-70
2022/12/13 10:50:57;;;;;;;20.77;7.73;;;;;;;-0.34;83.85;100746.03;5051980;28;20463;-70
2022/12/13 10:53:28;;;;;;;19.43;7.57;;;;;;;-0.33;84.44;100750.28;5053091;28;20462;-70
2022/12/13 10:55:56;;;;;;;19.43;8.07;;;;;;;-0.31;83.57;100749.06;5033212;28;20530;-69
2022/12/13 10:58:23;;;;;;;21.57;8.50;;;;;;;-0.30;83.96;100748.00;5032852;28;20478;-69
2022/12/13 11:00:49;;;;;;;22.30;10.87;;;;;;;-0.27;84.06;100742.25;5050373;28;20608;-68
2022/12/13 11:03:31;;;;;;;23.80;10.23;;;;;;;-0.26;82.80;100748.38;5051453;28;20549;-68
2022/12/13 11:06:03;;;;;;;18.33;8.80;;;;;;;-0.55;83.91;100741.97;5045973;28;20488;-71
2022/12/13 11:08:30;;;;;;;23.93;10.03;;;;;;;-0.47;84.33;100735.56;5051607;28;20451;-68
2022/12/13 11:10:59;;;;;;;20.97;9.10;;;;;;;-0.45;83.95;100736.13;5052148;28;20533;-68
2022/12/13 11:13:35;;;;;;;16.47;7.80;;;;;;;-0.37;83.21;100741.94;5050903;28;20557;-63
2022/12/13 11:16:03;;;;;;;23.10;9.47;;;;;;;-0.34;83.59;100736.19;5051655;28;20833;-70
2022/12/13 11:18:37;;;;;;;26.73;8.40;;;;;;;-0.33;84.10;100743.13;5052936;28;20445;-69
2022/12/13 11:21:06;;;;;;;24.00;9.80;;;;;;;-0.20;84.32;100733.34;5051518;28;20579;-69
2022/12/13 11:23:37;;;;;;;26.73;11.27;;;;;;;-0.16;83.65;100727.34;5090202;22;20496;-67
2022/12/13 11:26:09;;;;;;;18.20;8.80;;;;;;;-0.18;83.43;100728.59;5072219;28;20782;-67
2022/12/13 11:28:53;;;;;;;17.27;7.90;;;;;;;-0.15;83.34;100725.50;5070439;28;20457;-67